createdAt,value
2018-12-04T00:02:37.141Z,99124.39
2018-12-04T00:06:41.987Z,99133.95
2018-12-04T00:10:46.774Z,99111.33
2018-12-04T00:14:51.640Z,99127.44
2018-12-04T00:18:56.485Z,99129.23
2018-12-04T00:23:01.360Z,99155.78
2018-12-04T00:27:06.246Z,99168.85
2018-12-04T00:31:11.052Z,99170.16
2018-12-04T00:35:15.893Z,99168.88
2018-12-04T00:39:21.101Z,99215.78
2018-12-04T00:43:25.893Z,99235.73
2018-12-04T00:47:30.724Z,99260.04
2018-12-04T00:51:35.646Z,99253.05
2018-12-04T00:55:39.607Z,99235.95
2018-12-04T00:59:44.417Z,99220.66
2018-12-04T01:03:49.296Z,99205.36
2018-12-04T01:07:54.081Z,99201.79
2018-12-04T01:11:58.974Z,99207.41
2018-12-04T01:16:03.848Z,99210.84
2018-12-04T01:20:08.604Z,99219.06
2018-12-04T01:24:13.471Z,99209.11
2018-12-04T01:28:18.315Z,99196.48
2018-12-04T01:32:23.104Z,99193.48
2018-12-04T01:36:27.976Z,99185.59
2018-12-04T01:40:32.811Z,99169.13
2018-12-04T01:44:37.668Z,99162.23
2018-12-04T01:48:42.608Z,99141.88
2018-12-04T01:52:47.521Z,99147.97
2018-12-04T01:56:52.385Z,99141.57
2018-12-04T02:00:57.198Z,99136.02
2018-12-04T02:05:02.140Z,99157.00
2018-12-04T02:09:07.722Z,99168.85
2018-12-04T02:13:12.652Z,99167.23
2018-12-04T02:17:17.541Z,99160.81
2018-12-04T02:22:01.632Z,99151.82
2018-12-04T02:26:06.540Z,99139.73
2018-12-04T02:30:11.431Z,99148.48
2018-12-04T02:34:16.303Z,99152.82
2018-12-04T02:38:21.180Z,99155.89
2018-12-04T02:42:26.084Z,99166.43
2018-12-04T02:46:30.939Z,99153.22
2018-12-04T02:50:35.820Z,99161.92
2018-12-04T02:54:40.638Z,99146.90
2018-12-04T02:58:45.478Z,99138.77
2018-12-04T03:02:50.351Z,99152.23
2018-12-04T03:06:55.188Z,99153.73
2018-12-04T03:11:18.863Z,99155.19
2018-12-04T03:15:23.810Z,99167.94
2018-12-04T03:19:28.709Z,99169.69
2018-12-04T03:23:33.537Z,99178.45
2018-12-04T03:27:38.432Z,99171.02
2018-12-04T03:31:43.278Z,99181.95
2018-12-04T03:35:55.471Z,99186.73
2018-12-04T03:40:00.337Z,99195.92
2018-12-04T03:44:05.240Z,99196.80
2018-12-04T03:48:10.088Z,99196.77
2018-12-04T03:52:15.009Z,99217.78
2018-12-04T03:56:19.842Z,99220.86
2018-12-04T04:00:24.693Z,99218.65
2018-12-04T04:04:29.606Z,99223.91
2018-12-04T04:08:34.474Z,99220.41
2018-12-04T04:12:39.353Z,99225.67
2018-12-04T04:16:44.198Z,99225.67
2018-12-04T04:20:49.074Z,99236.16
2018-12-04T04:24:53.932Z,99237.88
2018-12-04T04:28:59.198Z,99247.53
2018-12-04T04:33:04.091Z,99256.28
2018-12-04T04:37:09.280Z,99255.83
2018-12-04T04:41:14.151Z,99266.34
2018-12-04T04:45:19.042Z,99265.03
2018-12-04T04:49:24.089Z,99272.05
2018-12-04T04:53:28.901Z,99280.36
2018-12-04T04:57:33.783Z,99273.37
2018-12-04T05:01:38.808Z,99280.36
2018-12-04T05:05:43.597Z,99290.00
2018-12-04T05:09:48.509Z,99290.45
2018-12-04T05:13:53.535Z,99286.93
2018-12-04T05:18:17.247Z,99288.69
2018-12-04T05:22:22.137Z,99304.02
2018-12-04T05:26:27.030Z,99309.27
2018-12-04T05:30:32.252Z,99320.66
2018-12-04T05:34:37.151Z,99324.60
2018-12-04T05:38:41.993Z,99318.48
2018-12-04T05:42:46.863Z,99321.11
2018-12-04T05:47:10.613Z,99325.47
2018-12-04T05:51:15.885Z,99337.30
2018-12-04T05:55:20.721Z,99337.75
2018-12-04T05:59:25.595Z,99342.14
2018-12-04T06:03:30.427Z,99339.50
2018-12-04T06:07:35.313Z,99346.08
2018-12-04T06:11:40.108Z,99349.15
2018-12-04T06:15:45.029Z,99347.41
2018-12-04T06:19:50.779Z,99361.87
2018-12-04T06:23:55.668Z,99372.38
2018-12-04T06:28:00.482Z,99387.28
2018-12-04T06:32:05.378Z,99386.83
2018-12-04T06:36:10.218Z,99394.72
2018-12-04T06:40:15.108Z,99387.27
2018-12-04T06:44:19.982Z,99398.66
2018-12-04T06:48:24.867Z,99410.92
2018-12-04T06:52:29.725Z,99415.30
2018-12-04T06:56:34.905Z,99418.80
2018-12-04T07:00:39.748Z,99422.30
2018-12-04T07:04:44.665Z,99429.77
2018-12-04T07:08:50.114Z,99435.90
2018-12-04T07:12:54.984Z,99433.28
2018-12-04T07:16:59.795Z,99434.16
2018-12-04T07:21:04.944Z,99459.13
2018-12-04T07:25:10.300Z,99454.29
2018-12-04T07:29:15.172Z,99464.83
2018-12-04T07:33:20.091Z,99479.31
2018-12-04T07:37:24.941Z,99480.64
2018-12-04T07:41:29.831Z,99482.83
2018-12-04T07:45:34.706Z,99497.29
2018-12-04T07:49:39.546Z,99498.17
2018-12-04T07:53:44.489Z,99505.17
2018-12-04T07:57:49.636Z,99502.56
2018-12-04T08:01:54.457Z,99509.11
2018-12-04T08:10:11.688Z,99512.17
2018-12-04T08:14:16.500Z,99521.81
2018-12-04T08:18:21.393Z,99520.05
2018-12-04T08:22:26.210Z,99518.73
2018-12-04T08:26:31.339Z,99517.42
2018-12-04T08:30:36.268Z,99532.31
2018-12-04T08:38:56.670Z,99539.73
2018-12-04T08:47:12.025Z,99547.14
2018-12-04T08:51:16.891Z,99553.72
2018-12-04T08:55:21.783Z,99549.73
2018-12-04T08:59:26.636Z,99555.00
2018-12-04T09:03:31.564Z,99554.54
2018-12-04T09:07:36.752Z,99545.72
2018-12-04T09:11:41.748Z,99557.57
2018-12-04T09:15:46.686Z,99560.63
2018-12-04T09:19:51.578Z,99567.20
2018-12-04T09:23:56.379Z,99563.69
2018-12-04T09:28:01.255Z,99570.67
2018-12-04T09:32:06.184Z,99552.20
2018-12-04T09:36:11.047Z,99555.69
2018-12-04T09:40:16.687Z,99554.77
2018-12-04T09:44:21.973Z,99542.89
2018-12-04T09:48:26.794Z,99549.87
2018-12-04T09:52:31.652Z,99543.25
2018-12-04T09:56:36.495Z,99546.73
2018-12-04T10:00:41.459Z,99544.48
2018-12-04T10:04:46.383Z,99544.48
2018-12-04T10:08:51.149Z,99551.94
2018-12-04T10:12:56.057Z,99556.73
2018-12-04T10:17:20.251Z,99561.63
2018-12-04T10:21:25.096Z,99559.41
2018-12-04T10:25:29.992Z,99547.98
2018-12-04T10:29:34.810Z,99547.98
2018-12-04T10:33:40.101Z,99549.30
2018-12-04T10:38:03.839Z,99557.27
2018-12-04T10:42:08.642Z,99557.27
2018-12-04T10:46:13.501Z,99561.65
2018-12-04T10:50:37.228Z,99559.02
2018-12-04T10:55:21.904Z,99559.02
2018-12-04T10:59:26.711Z,99570.42
2018-12-04T11:03:50.201Z,99574.37
2018-12-04T11:07:55.079Z,99590.60
2018-12-04T11:11:59.921Z,99589.33
2018-12-04T11:16:04.777Z,99599.42
2018-12-04T11:20:11.100Z,99593.69
2018-12-04T11:28:26.355Z,99593.69
2018-12-04T11:32:31.233Z,99599.37
2018-12-04T11:36:36.064Z,99594.09
2018-12-04T11:40:41.636Z,99591.89
2018-12-04T11:45:07.486Z,99605.07
2018-12-04T11:49:12.400Z,99605.07
2018-12-04T11:53:17.429Z,99604.60
2018-12-04T11:57:41.135Z,99623.03
2018-12-04T12:01:46.021Z,99623.03
2018-12-04T12:06:09.781Z,99629.58
2018-12-04T12:10:33.516Z,99619.44
2018-12-04T12:14:38.335Z,99619.44
2018-12-04T12:18:43.139Z,99625.93
2018-12-04T12:23:06.857Z,99652.72
2018-12-04T12:27:11.695Z,99652.72
2018-12-04T12:31:16.563Z,99648.28
2018-12-04T12:35:21.409Z,99661.06
2018-12-04T12:39:26.227Z,99657.13
2018-12-04T12:43:49.927Z,99664.30
2018-12-04T12:47:55.101Z,99688.06
2018-12-04T12:56:31.110Z,99715.08
2018-12-04T13:00:54.834Z,99715.08
2018-12-04T13:04:59.689Z,99754.73
2018-12-04T13:13:36.938Z,99801.43
2018-12-04T13:17:42.150Z,99812.84
2018-12-04T13:21:47.065Z,99830.84
2018-12-04T13:25:51.956Z,99847.06
2018-12-04T13:29:56.811Z,99866.82
2018-12-04T13:34:01.719Z,99872.10
2018-12-04T13:38:06.514Z,99874.27
2018-12-04T13:42:11.384Z,99885.69
2018-12-04T13:46:17.098Z,99882.58
2018-12-04T13:50:21.953Z,99898.38
2018-12-04T13:54:26.830Z,99913.73
2018-12-04T13:58:31.673Z,99936.94
2018-12-04T14:02:36.509Z,99944.34
2018-12-04T14:06:41.324Z,99953.55
2018-12-04T14:10:46.170Z,99960.52
2018-12-04T14:14:51.069Z,99966.65
2018-12-04T14:18:55.933Z,99973.65
2018-12-04T14:23:00.813Z,99975.80
2018-12-04T14:27:05.681Z,99984.48
2018-12-04T14:31:10.574Z,100002.88
2018-12-04T14:35:15.410Z,100008.98
2018-12-04T14:39:20.278Z,100006.66
2018-12-04T14:43:25.458Z,100017.08
2018-12-04T14:47:30.313Z,100024.91
2018-12-04T14:51:35.169Z,100026.64
2018-12-04T14:55:39.992Z,100038.00
2018-12-04T14:59:44.868Z,100048.97
2018-12-04T15:03:49.724Z,100057.21
2018-12-04T15:07:54.615Z,100072.44
2018-12-04T15:11:59.454Z,100082.91
2018-12-04T15:16:04.396Z,100094.71
2018-12-04T15:20:10.012Z,100108.72
2018-12-04T15:24:14.936Z,100112.84
2018-12-04T15:28:19.853Z,100118.08
2018-12-04T15:32:24.750Z,100126.27
2018-12-04T15:36:29.576Z,100137.11
2018-12-04T15:40:34.552Z,100147.21
2018-12-04T15:44:39.529Z,100163.38
2018-12-04T15:48:44.477Z,100172.47
2018-12-04T15:52:49.314Z,100174.17
2018-12-04T15:56:54.544Z,100187.69
2018-12-04T16:00:59.943Z,100190.23
2018-12-04T16:05:06.924Z,100185.33
2018-12-04T16:09:11.803Z,100201.50
2018-12-04T16:13:16.840Z,100212.79
2018-12-04T16:17:21.685Z,100219.33
2018-12-04T16:21:26.946Z,100239.80
2018-12-04T16:25:31.814Z,100246.74
2018-12-04T16:29:36.647Z,100254.59
2018-12-04T16:33:41.594Z,100264.69
2018-12-04T16:37:46.509Z,100270.90
2018-12-04T16:41:51.514Z,100281.03
2018-12-04T16:45:56.423Z,100289.75
2018-12-04T16:50:01.350Z,100287.47
2018-12-04T16:54:06.470Z,100297.06
2018-12-04T16:58:11.389Z,100312.31
2018-12-04T17:02:18.444Z,100314.53
2018-12-04T17:06:23.295Z,100315.37
2018-12-04T17:10:28.146Z,100321.05
2018-12-04T17:14:32.996Z,100327.66
2018-12-04T17:18:38.084Z,100328.16
2018-12-04T17:22:43.722Z,100330.44
2018-12-04T17:31:21.714Z,100342.09
2018-12-04T17:35:26.509Z,100331.96
2018-12-04T17:39:31.356Z,100336.30
2018-12-04T17:43:36.346Z,100353.87
2018-12-04T17:47:41.239Z,100359.09
2018-12-04T17:51:46.106Z,100367.80
2018-12-04T17:55:51.002Z,100380.02
2018-12-04T17:59:55.989Z,100398.66
2018-12-04T18:08:11.695Z,100408.12
2018-12-04T18:12:16.543Z,100411.48
2018-12-04T18:16:21.370Z,100426.31
2018-12-04T18:20:26.243Z,100435.45
2018-12-04T18:24:31.522Z,100439.34
2018-12-04T18:28:36.804Z,100448.85
2018-12-04T18:32:42.055Z,100453.16
2018-12-04T18:36:47.282Z,100464.05
2018-12-04T18:40:52.128Z,100483.28
2018-12-04T18:44:57.000Z,100481.48
2018-12-04T18:53:12.362Z,100489.67
2018-12-04T18:57:17.197Z,100494.36
2018-12-04T19:01:21.976Z,100500.79
2018-12-04T19:05:26.861Z,100510.29
2018-12-04T19:09:31.897Z,100512.38
2018-12-04T19:13:36.842Z,100524.10
2018-12-04T19:26:41.415Z,100552.80
2018-12-04T19:30:46.291Z,100564.84
2018-12-04T19:34:51.224Z,100571.69
2018-12-04T19:38:56.203Z,100570.09
2018-12-04T19:43:01.082Z,100566.11
2018-12-04T19:47:06.098Z,100579.80
2018-12-04T19:51:11.078Z,100593.91
2018-12-04T19:55:15.979Z,100599.27
2018-12-04T19:59:20.967Z,100602.91
2018-12-04T20:03:25.888Z,100606.13
2018-12-04T20:07:31.264Z,100615.08
2018-12-04T20:11:36.977Z,100622.28
2018-12-04T20:15:41.960Z,100630.58
2018-12-04T20:19:46.971Z,100630.58
2018-12-04T20:23:52.012Z,100633.40
2018-12-04T20:27:56.932Z,100640.98
2018-12-04T20:32:01.899Z,100645.05
2018-12-04T20:36:06.868Z,100652.58
2018-12-04T20:40:11.775Z,100658.34
2018-12-04T20:44:16.984Z,100663.89
2018-12-04T20:48:22.152Z,100664.46
2018-12-04T20:52:27.017Z,100665.64
2018-12-04T20:56:31.866Z,100671.52
2018-12-04T21:00:36.727Z,100678.37
2018-12-04T21:08:54.040Z,100674.13
2018-12-04T21:12:58.908Z,100690.55
2018-12-04T21:17:03.763Z,100704.87
2018-12-04T21:21:08.609Z,100704.76
2018-12-04T21:25:13.453Z,100721.50
2018-12-04T21:29:36.912Z,100720.14
2018-12-04T21:34:00.397Z,100725.68
2018-12-04T21:38:35.818Z,100731.59
2018-12-04T21:42:59.324Z,100731.38
2018-12-04T21:47:22.815Z,100735.87
2018-12-04T21:51:27.652Z,100745.19
2018-12-04T21:55:32.578Z,100744.81
2018-12-04T21:59:37.426Z,100745.05
2018-12-04T22:03:42.285Z,100747.58
2018-12-04T22:07:47.221Z,100757.02
2018-12-04T22:11:52.329Z,100765.09
2018-12-04T22:15:57.193Z,100771.92
2018-12-04T22:20:02.057Z,100781.72
2018-12-04T22:24:06.889Z,100786.81
2018-12-04T22:28:11.748Z,100795.86
2018-12-04T22:32:16.939Z,100800.40
2018-12-04T22:36:23.337Z,100806.86
2018-12-04T22:40:28.180Z,100801.05
2018-12-04T22:44:33.042Z,100810.06
2018-12-04T22:48:37.812Z,100817.23
2018-12-04T22:52:42.716Z,100822.33
2018-12-04T22:56:47.967Z,100828.78
2018-12-04T23:00:52.783Z,100836.02
2018-12-04T23:04:57.703Z,100846.69
2018-12-04T23:13:14.315Z,100839.42
2018-12-04T23:17:19.179Z,100840.59
2018-12-04T23:21:24.011Z,100840.88
2018-12-04T23:25:28.862Z,100844.20
2018-12-04T23:29:33.698Z,100848.25
2018-12-04T23:33:38.863Z,100862.81
2018-12-04T23:37:43.747Z,100859.92
2018-12-04T23:41:48.603Z,100861.05
2018-12-04T23:45:53.479Z,100870.11
2018-12-04T23:49:58.288Z,100879.59
2018-12-04T23:54:03.504Z,100881.63
2018-12-04T23:58:08.328Z,100887.27
